Time;durP1;ratioP1;P1;durP2;ratioP2;P2;SDS_P1;SDS_P2;PMS_P1;PMS_P2;Temp;Humidity;BMP_temperature;BMP_pressure;BME280_temperature;BME280_humidity;BME280_pressure;Samples;Min_cycle;Max_cycle;Signal;HPM_P1;HPM_P2
2022/07/03 00:01:08;;;;;;;5.83;2.33;;;17.30;99.90;;;;;;5075528;28;20052;-77
2022/07/03 00:03:35;;;;;;;7.87;2.00;;;17.30;99.90;;;;;;5057382;28;20047;-77
2022/07/03 00:06:01;;;;;;;5.27;1.87;;;17.20;99.90;;;;;;5057478;28;20052;-77
2022/07/03 00:08:27;;;;;;;4.43;2.10;;;17.20;99.90;;;;;;5041635;28;20044;-77
2022/07/03 00:10:53;;;;;;;3.17;2.37;;;17.20;99.90;;;;;;5058263;28;20075;-77
2022/07/03 00:13:19;;;;;;;2.73;2.17;;;17.20;99.90;;;;;;5058402;28;20122;-77
2022/07/03 00:15:44;;;;;;;5.40;1.90;;;17.10;99.90;;;;;;5058108;28;20048;-78
2022/07/03 00:18:10;;;;;;;3.73;2.40;;;17.10;99.90;;;;;;5066781;28;20090;-77
2022/07/03 00:20:44;;;;;;;3.93;2.03;;;17.10;99.90;;;;;;5056253;28;20048;-77
2022/07/03 00:23:13;;;;;;;4.37;2.37;;;17.00;99.90;;;;;;5058111;28;20044;-77
2022/07/03 00:25:40;;;;;;;5.23;2.47;;;17.00;99.90;;;;;;5074462;28;20048;-77
2022/07/03 00:28:07;;;;;;;2.77;2.20;;;17.00;99.90;;;;;;5037322;28;20068;-77
2022/07/03 00:30:34;;;;;;;3.77;2.40;;;16.90;99.90;;;;;;5072950;28;20525;-77
2022/07/03 00:33:03;;;;;;;7.33;2.30;;;16.90;99.90;;;;;;5040692;28;20067;-77
2022/07/03 00:35:31;;;;;;;4.80;2.27;;;16.80;99.90;;;;;;5038171;28;20036;-77
2022/07/03 00:37:58;;;;;;;6.73;2.50;;;16.80;99.90;;;;;;5073399;28;20130;-77
2022/07/03 00:40:24;;;;;;;4.10;2.00;;;16.80;99.90;;;;;;5057813;28;20445;-77
2022/07/03 00:42:53;;;;;;;4.07;2.53;;;16.80;99.90;;;;;;5073930;28;20040;-77
2022/07/03 00:45:20;;;;;;;6.13;2.80;;;16.80;99.90;;;;;;5074547;28;20044;-77
2022/07/03 00:47:47;;;;;;;5.17;2.40;;;16.80;99.90;;;;;;5056767;28;20392;-77
2022/07/03 00:50:13;;;;;;;4.90;2.63;;;16.80;99.90;;;;;;5074517;28;20044;-77
2022/07/03 00:52:46;;;;;;;6.30;2.50;;;16.70;99.90;;;;;;5055366;28;20040;-77
2022/07/03 00:55:15;;;;;;;3.93;2.70;;;16.60;99.90;;;;;;5041054;28;20048;-77
2022/07/03 00:57:45;;;;;;;10.13;2.60;;;16.60;99.90;;;;;;5073852;28;20044;-77
2022/07/03 01:00:12;;;;;;;3.00;2.20;;;16.60;99.90;;;;;;5040674;28;20074;-77
2022/07/03 01:02:45;;;;;;;5.47;2.40;;;16.50;99.90;;;;;;5074032;28;20352;-77
2022/07/03 01:05:17;;;;;;;10.57;3.30;;;16.50;99.90;;;;;;5040919;28;20043;-77
2022/07/03 01:07:51;;;;;;;5.40;2.70;;;16.40;99.90;;;;;;5057126;28;20047;-77
2022/07/03 01:10:35;;;;;;;4.03;2.60;;;16.40;99.90;;;;;;5056738;28;20514;-77
2022/07/03 01:13:09;;;;;;;5.70;2.72;;;16.30;99.90;;;;;;5054230;28;20409;-77
2022/07/03 01:15:42;;;;;;;4.18;2.33;;;16.30;99.90;;;;;;5056510;28;20040;-77
2022/07/03 01:18:27;;;;;;;7.28;2.42;;;16.20;99.90;;;;;;5056500;28;20115;-77
2022/07/03 01:20:59;;;;;;;4.33;2.30;;;16.20;99.90;;;;;;5057147;28;20079;-77
2022/07/03 01:23:44;;;;;;;8.33;2.67;;;16.10;99.90;;;;;;5057027;28;20051;-77
2022/07/03 01:26:15;;;;;;;4.70;2.43;;;16.10;99.90;;;;;;5051878;28;20410;-77
2022/07/03 01:28:45;;;;;;;4.13;2.57;;;16.00;99.90;;;;;;5073896;28;20446;-77
2022/07/03 01:31:17;;;;;;;5.23;3.17;;;16.00;99.90;;;;;;5051724;28;20093;-77
2022/07/03 01:33:44;;;;;;;6.63;2.73;;;15.90;99.90;;;;;;5055170;28;20560;-77
2022/07/03 01:36:15;;;;;;;3.53;2.73;;;15.90;99.90;;;;;;5072907;28;20080;-77
2022/07/03 01:38:42;;;;;;;5.23;2.40;;;15.80;99.90;;;;;;5040174;28;20113;-77
2022/07/03 01:41:09;;;;;;;5.73;2.60;;;15.80;99.90;;;;;;5072164;28;20052;-77
2022/07/03 01:43:41;;;;;;;7.23;2.50;;;15.80;99.90;;;;;;5071305;28;20036;-77
2022/07/03 01:46:08;;;;;;;3.53;2.43;;;15.70;99.90;;;;;;5072723;28;20055;-77
2022/07/03 01:48:35;;;;;;;2.87;2.40;;;15.70;99.90;;;;;;5056977;28;20445;-77
2022/07/03 01:51:01;;;;;;;5.60;2.70;;;15.70;99.90;;;;;;5040135;28;20047;-77
2022/07/03 01:53:29;;;;;;;5.50;2.93;;;15.60;99.90;;;;;;5056816;28;20040;-76
2022/07/03 01:55:57;;;;;;;3.33;2.30;;;15.60;99.90;;;;;;5056298;28;20043;-76
2022/07/03 01:58:22;;;;;;;4.10;2.40;;;15.50;99.90;;;;;;5040008;28;20093;-76
2022/07/03 02:01:00;;;;;;;4.07;2.33;;;15.50;99.90;;;;;;5054901;28;20043;-77
2022/07/03 02:03:28;;;;;;;5.50;2.63;;;15.40;99.90;;;;;;5073174;28;20051;-77
2022/07/03 02:06:02;;;;;;;4.07;2.70;;;15.40;99.90;;;;;;5073165;28;20410;-76
2022/07/03 02:08:36;;;;;;;5.53;2.57;;;15.30;99.90;;;;;;5068515;28;20040;-77
2022/07/03 02:11:08;;;;;;;;;;;15.30;99.90;;;;;;5039414;28;20048;-76
2022/07/03 02:13:39;;;;;;;3.63;1.87;;;15.20;99.90;;;;;;5072769;28;20409;-76
2022/07/03 02:16:09;;;;;;;3.97;2.27;;;15.20;99.90;;;;;;5056408;28;20468;-77
2022/07/03 02:18:37;;;;;;;3.80;2.53;;;15.20;99.90;;;;;;5062590;28;20059;-76
2022/07/03 02:21:07;;;;;;;4.00;2.27;;;15.20;99.90;;;;;;5056464;28;20054;-76
2022/07/03 02:23:52;;;;;;;4.97;2.60;;;15.10;99.90;;;;;;5056145;28;20048;-77
2022/07/03 02:26:26;;;;;;;4.73;2.60;;;15.10;99.90;;;;;;5052874;28;20070;-76
2022/07/03 02:28:58;;;;;;;5.67;2.67;;;15.00;99.90;;;;;;5060874;28;20044;-76
2022/07/03 02:31:30;;;;;;;5.03;2.87;;;15.00;99.90;;;;;;5064000;28;20448;-76
2022/07/03 02:33:58;;;;;;;4.07;2.57;;;15.00;99.90;;;;;;5036868;28;20044;-76
2022/07/03 02:36:28;;;;;;;3.53;2.20;;;15.00;99.90;;;;;;5072196;28;20093;-76
2022/07/03 02:38:56;;;;;;;4.17;2.70;;;14.90;99.90;;;;;;5055536;28;20044;-76
2022/07/03 02:41:27;;;;;;;2.97;2.27;;;14.90;99.90;;;;;;5072035;28;20052;-76
2022/07/03 02:44:00;;;;;;;4.33;2.80;;;14.80;99.90;;;;;;5072925;28;20498;-76
2022/07/03 02:46:50;;;;;;;3.72;2.92;;;14.80;99.90;;;;;;5062902;28;20040;-76
2022/07/03 02:49:40;;;;;;;5.27;2.60;;;14.80;99.90;;;;;;5076540;28;20464;-76
2022/07/03 02:52:13;;;;;;;4.33;3.20;;;14.70;99.90;;;;;;5058266;28;20055;-76
2022/07/03 02:54:44;;;;;;;4.72;2.95;;;14.70;99.90;;;;;;5056151;28;20039;-76
2022/07/03 02:57:10;;;;;;;5.23;2.53;;;14.70;99.90;;;;;;5075985;28;20032;-76
2022/07/03 02:59:46;;;;;;;3.40;2.70;;;14.60;99.90;;;;;;5059895;28;20569;-76
2022/07/03 03:02:21;;;;;;;5.10;2.80;;;14.60;99.90;;;;;;5059857;28;20048;-76
2022/07/03 03:04:56;;;;;;;4.53;2.83;;;14.60;99.90;;;;;;5075916;28;20048;-76
2022/07/03 03:07:29;;;;;;;3.87;2.77;;;14.60;99.90;;;;;;5059212;28;20055;-76
2022/07/03 03:09:56;;;;;;;3.23;2.00;;;14.50;99.90;;;;;;5070106;28;20033;-76
2022/07/03 03:12:30;;;;;;;69.77;3.83;;;14.50;99.90;;;;;;5067232;28;20093;-77
2022/07/03 03:15:01;;;;;;;6.70;4.17;;;14.50;99.90;;;;;;5059358;28;20519;-77
2022/07/03 03:17:36;;;;;;;5.57;4.33;;;14.40;99.90;;;;;;5075897;28;20094;-76
2022/07/03 03:20:02;;;;;;;7.83;4.47;;;14.40;99.90;;;;;;5075961;28;20059;-76
2022/07/03 03:22:38;;;;;;;9.40;4.87;;;14.30;99.90;;;;;;5059203;28;20046;-77
2022/07/03 03:25:04;;;;;;;6.43;4.70;;;14.30;99.90;;;;;;5059224;28;20040;-76
2022/07/03 03:27:30;;;;;;;5.50;5.00;;;14.40;99.90;;;;;;5057527;28;20410;-77
2022/07/03 03:29:57;;;;;;;7.97;4.97;;;14.40;99.90;;;;;;5059445;28;20048;-76
2022/07/03 03:32:24;;;;;;;6.23;4.87;;;14.50;99.90;;;;;;5052722;22;20056;-78
2022/07/03 03:34:51;;;;;;;6.97;5.43;;;14.50;99.90;;;;;;5038848;28;20135;-78
2022/07/03 03:37:18;;;;;;;7.53;5.20;;;14.60;99.90;;;;;;5055413;28;20054;-78
2022/07/03 03:39:43;;;;;;;7.20;5.50;;;14.70;99.90;;;;;;5018220;28;20045;-78
2022/07/03 03:42:09;;;;;;;7.20;5.20;;;14.70;99.90;;;;;;5035103;28;20051;-78
2022/07/03 03:44:35;;;;;;;7.30;5.20;;;14.70;99.90;;;;;;5027784;28;20039;-78
2022/07/03 03:47:01;;;;;;;7.40;5.03;;;14.80;99.90;;;;;;5021894;28;20045;-78
2022/07/03 03:49:28;;;;;;;4.83;4.27;;;14.80;99.90;;;;;;5039044;28;20396;-78
2022/07/03 03:51:56;;;;;;;5.27;4.13;;;14.80;99.90;;;;;;5055608;28;20045;-78
2022/07/03 03:54:22;;;;;;;4.27;3.83;;;14.80;99.90;;;;;;5038505;28;20036;-78
2022/07/03 03:56:47;;;;;;;5.77;3.80;;;14.80;99.90;;;;;;5054132;28;20135;-78
2022/07/03 03:59:13;;;;;;;4.37;3.40;;;14.80;99.90;;;;;;5038561;28;20140;-78
2022/07/03 04:01:39;;;;;;;5.50;4.07;;;14.80;99.90;;;;;;5020413;28;20075;-78
2022/07/03 04:04:05;;;;;;;6.87;4.10;;;14.80;99.90;;;;;;5054610;28;20087;-78
2022/07/03 04:06:30;;;;;;;7.17;4.30;;;14.90;99.90;;;;;;5038539;28;20052;-78
2022/07/03 04:08:58;;;;;;;5.77;3.80;;;14.90;99.90;;;;;;5021858;28;20503;-78
2022/07/03 04:11:23;;;;;;;4.90;3.93;;;14.90;99.90;;;;;;5055218;28;20056;-78
2022/07/03 04:13:49;;;;;;;4.80;3.60;;;14.90;99.90;;;;;;5038151;28;20039;-78
2022/07/03 04:16:15;;;;;;;6.87;4.30;;;14.90;99.90;;;;;;5054936;28;20087;-78
2022/07/03 04:18:40;;;;;;;6.30;4.00;;;15.00;99.90;;;;;;5053198;28;20044;-78
2022/07/03 04:21:06;;;;;;;8.73;4.77;;;15.00;99.90;;;;;;5038462;28;20050;-78
2022/07/03 04:23:32;;;;;;;5.50;3.90;;;15.00;99.90;;;;;;5028569;28;20044;-78
2022/07/03 04:26:03;;;;;;;6.87;5.13;;;14.90;99.90;;;;;;5054433;28;20131;-78
2022/07/03 04:28:29;;;;;;;7.30;4.73;;;15.00;99.90;;;;;;5038118;28;20080;-78
2022/07/03 04:30:55;;;;;;;5.67;4.70;;;15.00;99.90;;;;;;5038206;28;20513;-78
2022/07/03 04:33:21;;;;;;;6.67;5.00;;;15.00;99.90;;;;;;5031703;28;20963;-77
2022/07/03 04:35:47;;;;;;;7.97;5.57;;;15.00;99.90;;;;;;5026398;28;20037;-79
2022/07/03 04:38:12;;;;;;;9.53;5.87;;;15.00;99.90;;;;;;5018322;28;20041;-77
2022/07/03 04:40:38;;;;;;;6.53;5.73;;;15.00;99.90;;;;;;5046448;28;20055;-78
2022/07/03 04:43:05;;;;;;;8.37;5.83;;;15.00;99.90;;;;;;5037147;28;20047;-78
2022/07/03 04:45:31;;;;;;;8.87;5.60;;;15.00;99.90;;;;;;5053946;28;20518;-78
2022/07/03 04:47:57;;;;;;;7.13;5.20;;;15.10;99.90;;;;;;5037531;28;20044;-78
2022/07/03 04:50:23;;;;;;;7.27;5.00;;;15.10;99.90;;;;;;5017952;28;20045;-78
2022/07/03 04:52:48;;;;;;;7.23;6.13;;;15.20;99.90;;;;;;5041373;28;20036;-78
2022/07/03 04:55:14;;;;;;;6.87;5.30;;;15.20;99.90;;;;;;5037715;28;20052;-78
2022/07/03 04:57:40;;;;;;;7.97;5.30;;;15.20;99.90;;;;;;5037236;28;20071;-78
2022/07/03 05:00:08;;;;;;;7.10;5.03;;;15.20;99.90;;;;;;5036617;28;20056;-78
2022/07/03 05:02:35;;;;;;;7.00;6.17;;;15.20;99.90;;;;;;5037347;28;20135;-78
2022/07/03 05:05:01;;;;;;;6.70;5.67;;;15.20;99.90;;;;;;5036509;28;20054;-78
2022/07/03 05:07:26;;;;;;;6.17;4.70;;;15.10;99.90;;;;;;5017391;28;20037;-78
2022/07/03 05:09:52;;;;;;;7.40;6.10;;;15.10;99.90;;;;;;5025803;28;20041;-78
2022/07/03 05:12:18;;;;;;;7.97;6.03;;;15.10;99.90;;;;;;5053689;28;20178;-78
2022/07/03 05:14:43;;;;;;;7.17;6.47;;;15.20;99.90;;;;;;5053932;28;20044;-78
2022/07/03 05:17:10;;;;;;;6.63;5.63;;;15.20;99.90;;;;;;5053744;28;20127;-78
2022/07/03 05:19:37;;;;;;;8.17;6.30;;;15.20;99.90;;;;;;5037106;28;20052;-78
2022/07/03 05:22:03;;;;;;;8.43;5.60;;;15.30;99.90;;;;;;5053861;28;20094;-78
2022/07/03 05:24:28;;;;;;;6.93;5.63;;;15.30;99.90;;;;;;5053675;28;20066;-78
2022/07/03 05:26:54;;;;;;;7.13;5.90;;;15.40;99.90;;;;;;5035595;28;20049;-78
2022/07/03 05:29:20;;;;;;;6.93;5.50;;;15.40;99.90;;;;;;5028664;28;20466;-78
2022/07/03 05:31:46;;;;;;;6.20;5.60;;;15.50;99.90;;;;;;5041816;28;20052;-78
2022/07/03 05:34:14;;;;;;;5.90;5.30;;;15.80;99.90;;;;;;5029602;28;20048;-78
2022/07/03 05:36:39;;;;;;;7.87;5.37;;;16.30;99.90;;;;;;5053813;28;20415;-78
2022/07/03 05:41:49;;;;;;;;;;;17.50;99.90;;;;;;5053022;28;20055;-78
2022/07/03 05:44:15;;;;;;;4.93;3.97;;;17.60;99.90;;;;;;5031857;28;20322;-78
2022/07/03 05:46:40;;;;;;;6.27;4.83;;;17.60;99.90;;;;;;5034643;28;20084;-78
2022/07/03 05:49:06;;;;;;;5.67;4.97;;;17.50;99.90;;;;;;5022562;28;20103;-78
2022/07/03 05:51:33;;;;;;;6.87;4.50;;;17.50;99.90;;;;;;5034223;28;20120;-78
2022/07/03 05:53:59;;;;;;;7.80;5.70;;;17.40;99.90;;;;;;5053533;28;20385;-78
2022/07/03 05:56:25;;;;;;;8.13;4.90;;;17.50;99.90;;;;;;5036623;28;20047;-79
2022/07/03 05:58:50;;;;;;;8.00;4.53;;;17.50;99.90;;;;;;5037036;28;20060;-79
2022/07/03 06:01:16;;;;;;;7.00;5.07;;;17.60;99.90;;;;;;5035506;28;20048;-78
2022/07/03 06:03:42;;;;;;;8.53;4.70;;;17.70;99.90;;;;;;5036414;28;20082;-79
2022/07/03 06:06:08;;;;;;;9.10;4.10;;;17.80;99.90;;;;;;5036595;28;20109;-78
2022/07/03 06:08:36;;;;;;;4.77;4.17;;;18.00;99.90;;;;;;5036702;28;20036;-78
2022/07/03 06:11:02;;;;;;;6.77;3.97;;;18.20;99.90;;;;;;5037158;28;20650;-78
2022/07/03 06:13:27;;;;;;;7.07;3.60;;;18.40;99.90;;;;;;5053344;28;20131;-78
2022/07/03 06:15:53;;;;;;;5.33;3.30;;;18.40;99.90;;;;;;5053138;28;20128;-79
2022/07/03 06:18:19;;;;;;;4.07;3.67;;;18.50;99.90;;;;;;5019264;28;20032;-79
2022/07/03 06:20:44;;;;;;;5.23;2.97;;;18.50;99.90;;;;;;5023592;28;20045;-79
2022/07/03 06:23:10;;;;;;;5.97;3.23;;;18.60;99.90;;;;;;5057059;28;20044;-79
2022/07/03 06:25:37;;;;;;;5.50;2.40;;;18.60;99.90;;;;;;5040837;28;20462;-78
2022/07/03 06:28:03;;;;;;;4.60;2.77;;;18.60;99.90;;;;;;5040342;28;20139;-78
2022/07/03 06:30:29;;;;;;;3.83;2.57;;;18.70;99.90;;;;;;5057082;28;20119;-79
2022/07/03 06:32:55;;;;;;;8.07;2.70;;;18.70;99.90;;;;;;5056783;28;20554;-79
2022/07/03 06:35:21;;;;;;;5.33;2.80;;;18.70;99.90;;;;;;5032762;28;20080;-78
2022/07/03 06:37:47;;;;;;;5.87;2.97;;;18.80;99.90;;;;;;5039831;28;20075;-78
2022/07/03 06:40:13;;;;;;;5.33;2.90;;;18.80;99.90;;;;;;5023593;28;20127;-79
2022/07/03 06:42:40;;;;;;;5.33;2.67;;;18.80;99.90;;;;;;5055748;28;20075;-79
2022/07/03 06:45:07;;;;;;;4.90;2.97;;;18.80;99.90;;;;;;5039813;28;20063;-79
2022/07/03 06:47:36;;;;;;;5.77;2.50;;;18.80;99.90;;;;;;5055675;28;20060;-79
2022/07/03 06:50:02;;;;;;;3.73;2.53;;;18.80;99.90;;;;;;5040136;28;20503;-78
2022/07/03 06:52:28;;;;;;;4.07;2.60;;;18.80;99.90;;;;;;5055184;28;20123;-78
2022/07/03 06:54:55;;;;;;;6.10;2.80;;;18.80;99.90;;;;;;5056415;28;20491;-79
2022/07/03 06:57:21;;;;;;;5.43;2.00;;;18.80;99.90;;;;;;5055745;28;20055;-78
2022/07/03 06:59:48;;;;;;;5.97;1.90;;;18.90;99.90;;;;;;5020372;28;20459;-78
2022/07/03 07:02:14;;;;;;;5.47;2.03;;;18.90;99.90;;;;;;5035771;28;20407;-78
2022/07/03 07:04:40;;;;;;;2.73;1.40;;;19.00;99.90;;;;;;5056136;28;20047;-80
2022/07/03 07:07:06;;;;;;;3.97;1.50;;;19.00;99.90;;;;;;5056242;28;20055;-79
2022/07/03 07:09:32;;;;;;;4.13;1.57;;;19.20;99.90;;;;;;5037979;28;20093;-78
2022/07/03 07:11:57;;;;;;;3.10;1.67;;;19.40;99.90;;;;;;5043087;28;20543;-78
2022/07/03 07:14:23;;;;;;;3.37;1.73;;;19.40;99.90;;;;;;5056402;28;20041;-77
2022/07/03 07:16:50;;;;;;;4.07;1.57;;;19.40;99.90;;;;;;5056025;28;20423;-78
2022/07/03 07:19:16;;;;;;;4.03;1.70;;;19.40;99.90;;;;;;5039668;28;20052;-78
2022/07/03 07:21:42;;;;;;;3.37;1.40;;;19.50;99.90;;;;;;5022240;28;20089;-79
2022/07/03 07:24:08;;;;;;;3.97;1.60;;;19.60;99.90;;;;;;5042032;28;20044;-79
2022/07/03 07:26:34;;;;;;;3.43;1.60;;;19.60;99.90;;;;;;5037074;28;20041;-79
2022/07/03 07:28:59;;;;;;;2.63;1.40;;;19.70;99.90;;;;;;5017859;28;20047;-79
2022/07/03 07:31:25;;;;;;;2.83;1.43;;;19.80;99.90;;;;;;5023454;28;20044;-79
2022/07/03 07:33:52;;;;;;;3.40;1.70;;;19.90;99.90;;;;;;5022882;28;20487;-77
2022/07/03 07:36:18;;;;;;;3.33;1.70;;;20.10;99.90;;;;;;5049359;28;20063;-77
2022/07/03 07:38:43;;;;;;;3.80;1.70;;;20.20;99.90;;;;;;5020728;28;20441;-79
2022/07/03 07:41:09;;;;;;;4.13;1.80;;;20.20;99.90;;;;;;5054474;28;20078;-80
2022/07/03 07:43:35;;;;;;;4.90;1.80;;;20.20;99.90;;;;;;5052015;28;20041;-80
2022/07/03 07:46:01;;;;;;;3.43;1.63;;;20.20;99.90;;;;;;5037030;28;20053;-80
2022/07/03 07:48:27;;;;;;;3.50;1.60;;;20.30;99.90;;;;;;5038044;28;20051;-77
2022/07/03 07:50:54;;;;;;;3.27;1.30;;;20.30;99.90;;;;;;5054698;28;20357;-79
2022/07/03 07:53:20;;;;;;;3.70;1.43;;;20.30;99.90;;;;;;5036032;28;20499;-77
2022/07/03 07:55:45;;;;;;;3.63;1.73;;;20.30;99.90;;;;;;5037430;28;20056;-80
2022/07/03 07:58:11;;;;;;;3.77;1.70;;;20.40;99.90;;;;;;5036059;28;20036;-78
2022/07/03 08:05:35;;;;;;;4.27;1.70;;;20.40;99.90;;;;;;5020568;28;20147;-79
2022/07/03 08:06:09;;;;;;;3.93;2.07;;;20.50;99.90;;;;;;5053343;28;20044;-79
2022/07/03 08:08:35;;;;;;;3.70;1.50;;;20.50;99.90;;;;;;5052931;28;20071;-79
2022/07/03 08:11:01;;;;;;;5.33;1.80;;;20.50;99.90;;;;;;5053481;28;20177;-77
2022/07/03 08:13:26;;;;;;;5.23;1.90;;;20.60;99.90;;;;;;5052468;28;20044;-77
2022/07/03 08:15:52;;;;;;;4.80;1.90;;;20.60;99.90;;;;;;5051117;28;20049;-79
2022/07/03 08:18:18;;;;;;;3.07;1.57;;;20.70;99.90;;;;;;5051307;28;20049;-80
2022/07/03 08:20:44;;;;;;;5.13;1.80;;;20.90;99.90;;;;;;5017114;28;20071;-79
2022/07/03 08:23:11;;;;;;;3.43;1.70;;;21.20;99.90;;;;;;5031245;28;20075;-79
2022/07/03 08:25:37;;;;;;;4.17;1.73;;;21.40;99.90;;;;;;5036754;28;20486;-79
2022/07/03 08:28:03;;;;;;;5.57;2.03;;;21.40;99.90;;;;;;5036950;28;20076;-79
2022/07/03 08:30:29;;;;;;;5.07;1.77;;;21.40;99.90;;;;;;5036507;28;20098;-79
2022/07/03 08:32:57;;;;;;;6.87;2.13;;;21.50;99.90;;;;;;5034767;28;20147;-80
2022/07/03 08:35:23;;;;;;;4.57;1.67;;;21.60;99.90;;;;;;5052964;28;20128;-79
2022/07/03 08:37:49;;;;;;;6.00;1.90;;;21.70;99.90;;;;;;5046551;28;20139;-80
2022/07/03 08:40:18;;;;;;;5.43;1.87;;;21.70;99.90;;;;;;5026542;28;20041;-79
2022/07/03 08:42:46;;;;;;;3.50;1.60;;;21.70;99.90;;;;;;5016652;28;20053;-78
2022/07/03 08:45:14;;;;;;;4.80;1.80;;;21.70;99.90;;;;;;5052258;28;20052;-76
2022/07/03 08:47:42;;;;;;;3.47;1.70;;;21.70;99.90;;;;;;5049491;28;20052;-78
2022/07/03 08:50:09;;;;;;;2.67;1.30;;;21.70;99.90;;;;;;5046764;28;20040;-81
2022/07/03 08:52:35;;;;;;;3.33;1.50;;;21.70;99.90;;;;;;5036366;28;20048;-79
2022/07/03 08:55:02;;;;;;;2.77;1.30;;;21.70;99.90;;;;;;5037121;28;20043;-78
2022/07/03 08:57:30;;;;;;;4.33;1.60;;;21.70;99.90;;;;;;5034645;28;20048;-77
2022/07/03 08:59:58;;;;;;;7.60;1.13;;;21.80;99.90;;;;;;5066367;28;20414;-77
2022/07/03 09:02:25;;;;;;;7.50;1.10;;;21.80;99.90;;;;;;5035480;28;20117;-78
2022/07/03 09:04:51;;;;;;;4.37;1.40;;;21.90;99.90;;;;;;5051853;28;20051;-78
2022/07/03 09:07:18;;;;;;;4.18;1.35;;;22.10;99.90;;;;;;5019321;28;20037;-78
2022/07/03 09:09:44;;;;;;;3.37;1.40;;;22.10;99.90;;;;;;5029771;28;20052;-78
2022/07/03 09:12:10;;;;;;;3.80;1.37;;;22.10;99.90;;;;;;5048702;28;20048;-76
2022/07/03 09:14:38;;;;;;;5.15;1.42;;;22.10;99.90;;;;;;5032586;28;20036;-78
2022/07/03 09:17:06;;;;;;;3.93;1.07;;;22.20;99.90;;;;;;5050866;28;20123;-79
2022/07/03 09:19:41;;;;;;;2.73;1.20;;;22.30;99.90;;;;;;5037335;28;20109;-79
2022/07/03 09:22:19;;;;;;;4.70;1.30;;;22.40;99.90;;;;;;5019598;28;20058;-78
2022/07/03 09:24:45;;;;;;;4.70;1.40;;;22.40;99.90;;;;;;5036565;28;20052;-78
2022/07/03 09:27:16;;;;;;;3.05;1.27;;;22.50;99.90;;;;;;5036129;28;20127;-78
2022/07/03 09:29:51;;;;;;;4.30;1.08;;;22.60;99.90;;;;;;5050647;28;20049;-77
2022/07/03 09:32:21;;;;;;;2.97;1.00;;;22.70;99.90;;;;;;5026310;28;20055;-76
2022/07/03 09:34:48;;;;;;;5.30;1.10;;;22.80;99.90;;;;;;5011550;28;20067;-76
2022/07/03 09:37:24;;;;;;;2.95;1.10;;;22.90;99.90;;;;;;5052574;28;20040;-74
2022/07/03 09:39:57;;;;;;;3.75;1.17;;;23.00;99.90;;;;;;5045608;28;20045;-76
2022/07/03 09:42:23;;;;;;;5.03;1.45;;;23.20;99.90;;;;;;5051983;28;20458;-79
2022/07/03 09:44:54;;;;;;;4.20;1.27;;;23.40;99.90;;;;;;5036518;28;20060;-77
2022/07/03 09:47:21;;;;;;;4.03;1.20;;;23.80;99.90;;;;;;5037299;28;20463;-77
2022/07/03 09:49:53;;;;;;;4.55;1.13;;;23.90;99.90;;;;;;5047656;28;20044;-79
2022/07/03 09:52:41;;;;;;;3.40;1.30;;;24.10;99.90;;;;;;5035622;28;20072;-77
2022/07/03 09:55:16;;;;;;;3.45;0.93;;;24.20;99.90;;;;;;5014885;28;20048;-78
2022/07/03 09:57:44;;;;;;;5.53;0.93;;;24.30;99.90;;;;;;5049458;28;20406;-76
2022/07/03 10:00:16;;;;;;;1.17;0.60;;;24.20;98.10;;;;;;5054094;28;20510;-76
2022/07/03 10:02:53;;;;;;;1.83;0.90;;;24.00;96.30;;;;;;5031523;28;20120;-75
2022/07/03 10:05:20;;;;;;;1.80;0.80;;;24.00;95.70;;;;;;5051568;28;20041;-76
2022/07/03 10:07:51;;;;;;;3.47;0.70;;;24.20;93.70;;;;;;5032644;28;20044;-75
2022/07/03 10:10:18;;;;;;;2.60;0.80;;;24.30;93.20;;;;;;5020181;28;20071;-76
2022/07/03 10:12:44;;;;;;;1.83;0.70;;;24.60;93.90;;;;;;5010280;28;20048;-77
2022/07/03 10:15:12;;;;;;;1.70;0.65;;;24.90;94.00;;;;;;5051774;28;20118;-75
2022/07/03 10:17:41;;;;;;;3.72;0.90;;;25.20;93.20;;;;;;5037144;28;20048;-73
2022/07/03 10:20:12;;;;;;;2.72;0.80;;;25.40;91.50;;;;;;5053733;28;20048;-76
2022/07/03 10:22:41;;;;;;;2.75;0.60;;;25.20;91.30;;;;;;5053626;28;20423;-73
2022/07/03 10:25:08;;;;;;;3.17;0.73;;;24.80;91.30;;;;;;5052548;28;20079;-75
2022/07/03 10:27:36;;;;;;;3.25;0.85;;;24.30;91.90;;;;;;5034699;28;20044;-77
2022/07/03 10:30:02;;;;;;;2.97;0.90;;;24.10;93.30;;;;;;5046817;28;20037;-76
2022/07/03 10:32:28;;;;;;;3.08;0.90;;;24.30;94.00;;;;;;5031335;28;20106;-77
2022/07/03 10:34:55;;;;;;;2.55;0.80;;;24.70;94.10;;;;;;5034953;28;20454;-79
2022/07/03 10:37:27;;;;;;;1.98;0.80;;;24.70;93.20;;;;;;5054962;28;20139;-78
2022/07/03 10:44:45;;;;;;;2.15;0.90;;;24.70;93.50;;;;;;5010043;28;20132;-77
2022/07/03 10:46:00;;;;;;;2.50;1.00;;;24.80;92.50;;;;;;5052588;28;20067;-78
2022/07/03 10:48:57;;;;;;;0.95;0.50;;;25.10;92.40;;;;;;5070664;28;20157;-77
2022/07/03 10:51:26;;;;;;;1.02;0.50;;;25.60;89.10;;;;;;5033060;28;20032;-76
2022/07/03 10:54:14;;;;;;;2.53;0.70;;;25.80;88.80;;;;;;5033878;28;20059;-76
2022/07/03 10:57:04;;;;;;;4.20;0.70;;;26.00;90.30;;;;;;5050492;28;20036;-76
2022/07/03 11:00:05;;;;;;;8.13;0.85;;;25.90;85.50;;;;;;5032490;28;20488;-75
2022/07/03 11:02:36;;;;;;;1.48;0.60;;;25.40;87.00;;;;;;5034530;28;20052;-75
2022/07/03 11:05:14;;;;;;;4.95;0.70;;;25.00;89.00;;;;;;5053321;28;20044;-75
2022/07/03 11:08:06;;;;;;;3.22;0.80;;;25.00;90.90;;;;;;5055607;28;20059;-76
2022/07/03 11:10:35;;;;;;;1.95;0.70;;;25.00;90.60;;;;;;5051785;28;20052;-76
2022/07/03 11:13:05;;;;;;;1.77;0.80;;;24.70;91.30;;;;;;5065585;28;20392;-75
2022/07/03 11:15:32;;;;;;;5.20;0.98;;;24.90;92.80;;;;;;5056648;28;20044;-75
2022/07/03 11:18:11;;;;;;;1.77;0.50;;;25.20;90.30;;;;;;5056156;28;20058;-75
2022/07/03 11:21:05;;;;;;;1.48;0.68;;;25.40;89.00;;;;;;5040175;28;20050;-77
2022/07/03 11:23:41;;;;;;;2.88;1.00;;;25.70;88.80;;;;;;5054843;28;20045;-77
2022/07/03 11:26:21;;;;;;;2.35;0.70;;;26.10;87.90;;;;;;5036651;28;20110;-77
2022/07/03 11:28:52;;;;;;;2.03;0.60;;;26.30;89.60;;;;;;5017481;28;20504;-77
2022/07/03 11:31:18;;;;;;;1.13;0.68;;;26.50;88.10;;;;;;5018450;28;20163;-77
2022/07/03 11:33:45;;;;;;;1.77;0.70;;;26.70;87.20;;;;;;5053850;28;20040;-78
2022/07/03 11:36:11;;;;;;;2.35;0.80;;;27.00;90.00;;;;;;5037442;28;20040;-74
2022/07/03 11:38:38;;;;;;;0.93;0.50;;;27.20;88.50;;;;;;5037389;28;20068;-77
2022/07/03 11:41:08;;;;;;;4.57;0.80;;;27.30;85.60;;;;;;5050500;28;20123;-78
2022/07/03 11:43:34;;;;;;;1.40;0.52;;;26.80;84.20;;;;;;5053305;28;20068;-77
2022/07/03 11:46:00;;;;;;;1.88;0.70;;;26.40;85.90;;;;;;5032509;28;20043;-76
2022/07/03 11:48:27;;;;;;;2.20;0.60;;;26.00;83.90;;;;;;5048891;28;20052;-77
2022/07/03 11:51:00;;;;;;;2.20;0.70;;;26.00;84.20;;;;;;5035355;28;20057;-74
2022/07/03 11:53:27;;;;;;;4.68;0.80;;;26.10;85.50;;;;;;5036104;28;20419;-75
2022/07/03 11:55:57;;;;;;;2.75;0.90;;;26.10;87.40;;;;;;5035556;28;20053;-78
2022/07/03 11:58:23;;;;;;;1.55;0.80;;;26.30;88.00;;;;;;5054558;28;20048;-74
2022/07/03 12:00:53;;;;;;;3.08;0.80;;;26.60;87.80;;;;;;5051518;28;20045;-77
2022/07/03 12:03:24;;;;;;;2.38;0.70;;;26.90;86.90;;;;;;5036397;28;20063;-76
2022/07/03 12:05:55;;;;;;;2.53;0.77;;;27.00;84.90;;;;;;5038001;28;20066;-77
2022/07/03 12:08:23;;;;;;;3.30;0.85;;;27.10;84.90;;;;;;5052267;28;20040;-76
2022/07/03 12:10:49;;;;;;;4.22;1.17;;;26.60;85.70;;;;;;5037223;28;20411;-77
2022/07/03 12:13:20;;;;;;;5.53;1.00;;;26.60;89.10;;;;;;5052282;28;20094;-78
2022/07/03 12:15:47;;;;;;;3.47;1.20;;;27.00;90.00;;;;;;5037207;28;20056;-76
2022/07/03 12:18:13;;;;;;;5.97;1.30;;;27.20;88.60;;;;;;5052847;28;20276;-75
2022/07/03 12:20:38;;;;;;;3.90;1.20;;;27.40;89.50;;;;;;5036011;28;20052;-74
2022/07/03 12:23:04;;;;;;;4.07;1.40;;;27.90;90.00;;;;;;5052223;28;20402;-77
2022/07/03 12:25:31;;;;;;;3.65;1.20;;;28.10;89.00;;;;;;5054054;28;20037;-75
2022/07/03 12:27:57;;;;;;;13.10;1.23;;;27.90;87.80;;;;;;5020426;28;20059;-75
2022/07/03 12:30:26;;;;;;;3.25;1.10;;;28.00;89.80;;;;;;5054214;28;20122;-73
2022/07/03 12:32:52;;;;;;;6.88;1.20;;;28.40;88.00;;;;;;5019694;28;20087;-76
2022/07/03 12:35:21;;;;;;;3.40;0.90;;;28.40;87.00;;;;;;5053253;28;20040;-79
2022/07/03 12:37:47;;;;;;;6.35;1.10;;;28.00;86.30;;;;;;5020332;28;20045;-77
2022/07/03 12:40:14;;;;;;;2.70;1.10;;;27.50;86.40;;;;;;5020375;28;20047;-79
2022/07/03 12:42:45;;;;;;;5.55;1.30;;;27.10;87.90;;;;;;5066309;28;20055;-76
2022/07/03 12:45:12;;;;;;;2.88;1.10;;;26.80;88.70;;;;;;5055475;28;20040;-78
2022/07/03 12:47:39;;;;;;;3.75;1.02;;;26.50;89.80;;;;;;5038865;28;20048;-75
2022/07/03 12:50:06;;;;;;;5.03;1.20;;;26.60;91.10;;;;;;5051207;28;20491;-75
2022/07/03 12:52:34;;;;;;;2.63;0.90;;;26.90;91.00;;;;;;5070216;28;20047;-77
2022/07/03 12:55:01;;;;;;;2.88;0.77;;;27.10;88.80;;;;;;5022003;28;20043;-77
2022/07/03 13:00:26;;;;;;;2.35;0.90;;;27.10;88.80;;;;;;5020992;28;20052;-76
2022/07/03 13:02:53;;;;;;;2.72;0.70;;;27.30;88.00;;;;;;5054383;28;20090;-77
2022/07/03 13:05:21;;;;;;;5.22;1.10;;;27.50;89.60;;;;;;5020896;28;20446;-78
2022/07/03 13:07:48;;;;;;;3.20;0.88;;;27.90;90.20;;;;;;5063508;28;20041;-76